Genco Loire — V7GN8 — position and weather

sailwx.info

Track history (hours):
 
Tides and Currents Weather Stations Pressure Air Temp Water Temp Dewpoint Dewpoint Depression Visibility Wind Speed Wind Dir Waves Ship Positions

Genco Loire

Last reported at 2018-Feb-25 20:00 UTC. Time now 2018-Feb-26 03:56 UTC.
Position N 45°48' W 178°36'.

Length 190 m; draft 10.8 m.

Type: Cargo ship. MMSI: 538002760.

Wind from 320 at 10 knots

Barometer 1031.0 mb
Air temperature 10.0 ° C
Visibility: greater than 5.4 NM
Water temperature 8.0 ° C

Date/timePositionNaut miles runAvg speedWind from/ knotsBaromVisibWave heightAir tempDewpointWater temp
2018-Feb-25 20:00N 45°48' W 178°36'209 9.1 320 / 101031.0 5.4 10.0 8.0
2018-Feb-24 21:00N 45°42' E 176°24'155 6.7 230 / 301012.0 1.1 7.0 6.0
2018-Feb-23 22:00N 45°42' E 172°42'   140 / 151036.0 2.2 4.0 6.0
2018-Feb-17 17:41N 41°34' E 141°36'3 9.8
2018-Feb-17 17:25N 41°35' E 141°33'410.1
2018-Feb-17 17:00N 41°36' E 141°28'5 9.8
2018-Feb-17 16:31N 41°36' E 141°21'5 9.3
2018-Feb-17 16:00N 41°36' E 141°15'510.1
2018-Feb-17 15:30N 41°36' E 141°08'613.2
2018-Feb-17 15:01N 41°37' E 140°59'713.4
2018-Feb-17 14:30N 41°36' E 140°50'611.5
2018-Feb-17 14:00N 41°33' E 140°44'610.9
2018-Feb-17 13:29N 41°30' E 140°38'510.6
2018-Feb-17 13:00N 41°27' E 140°32'910.9
2018-Feb-17 12:10N 41°21' E 140°23'2 9.4
2018-Feb-17 12:00N 41°20' E 140°21'  
Track history (hours):
 
Tides and Currents Weather Stations Pressure Air Temp Water Temp Dewpoint Dewpoint Depression Visibility Wind Speed Wind Dir Waves Ship Positions

Genco Loire

Last reported at 2018-Feb-25 20:00 UTC. Time now 2018-Feb-26 03:56 UTC.
Position N 45°48' W 178°36'.

Length 190 m; draft 10.8 m.

Type: Cargo ship. MMSI: 538002760.

Wind from 320 at 10 knots

Barometer 1031.0 mb
Air temperature 10.0 ° C
Visibility: greater than 5.4 NM
Water temperature 8.0 ° C

Date/timePositionNaut miles runAvg speedWind from/ knotsBaromVisibWave heightAir tempDewpointWater temp
2018-Feb-25 20:00N 45°48' W 178°36'209 9.1 320 / 101031.0 5.4 10.0 8.0
2018-Feb-24 21:00N 45°42' E 176°24'155 6.7 230 / 301012.0 1.1 7.0 6.0
2018-Feb-23 22:00N 45°42' E 172°42'   140 / 151036.0 2.2 4.0 6.0
2018-Feb-17 17:41N 41°34' E 141°36'3 9.8
2018-Feb-17 17:25N 41°35' E 141°33'410.1
2018-Feb-17 17:00N 41°36' E 141°28'5 9.8
2018-Feb-17 16:31N 41°36' E 141°21'5 9.3
2018-Feb-17 16:00N 41°36' E 141°15'510.1
2018-Feb-17 15:30N 41°36' E 141°08'613.2
2018-Feb-17 15:01N 41°37' E 140°59'713.4
2018-Feb-17 14:30N 41°36' E 140°50'611.5
2018-Feb-17 14:00N 41°33' E 140°44'610.9
2018-Feb-17 13:29N 41°30' E 140°38'510.6
2018-Feb-17 13:00N 41°27' E 140°32'910.9
2018-Feb-17 12:10N 41°21' E 140°23'2 9.4
2018-Feb-17 12:00N 41°20' E 140°21'  

Dump ship's entire track history